Hauptseite
METAR-TAF:

METAR-TAF

Flughäfen :

Flughafen Triest

Triest / Ronchi dei Legionari, Italien

Breite: 45-49N, Länge: 013-29E, Höhe: 12 m

Beobachtung

Neuester Wetterbericht von vor 49 Minuten, um 06:20 UTC
Wind 3 kt aus Nordost, variierte zwischen Nord und Ost
Temperatur 25°C
Luftfeuchtigkeit 54%
Luftdruck 1012 hPa
Sichtweite 10 km oder mehr

METAR: LIPQ 240620Z AUTO 05003KT 010V090 9999 BKN089/// 25/15 Q1012

Zeit: 09:09 (07:09 UTC)

Prognose

Neuester Wetterbericht von vor 2 Stunden und 9 Minuten, um 05:00 UTC
Gültige Prognose vom 24 um 06 UTC bis 25 um 06 UTC
Wind 15 kt aus Ost
Sichtweite 10 km oder mehr
Aufgelockert bewölkt in der Höhe von 4000 ft
Übergehend zu
vom 24 um 22 UTC bis 24 um 24 UTC
Wind 5 kt aus unterschiedlichen Richtungen

TAF: LIPQ 240500Z 2406/2506 08015KT 9999 SCT040 BECMG 2422/2424 VRB05KT

Wetterbeobachtungen und Prognosen von mehr als 4000 Flughäfen (METAR und TAF Bericht).

Die verfügbaren Stationen werden durch gelbe und rote Markierungen auf der Karte dargestellt.

Führen Sie die Maus auf sie, um den Namen der Station zu sehen.

Darauf klicken, um die Beobachtung von Wetterbeobachtungen und Prognosen zu sehen.

Um die Karte zu ändern : klicken Sie auf den grünen Tasten mit einem schwarzen Kreuz Zum Vergrößern, auf den grünen Button mit einem Gedankenstrich zu verkleinern, oder auf die grünen Pfeile für benachbarte Karten.


METAR-TAF: